Time;durP1;ratioP1;P1;durP2;ratioP2;P2;SDS_P1;SDS_P2;PMS_P1;PMS_P2;Temp;Humidity;BMP_temperature;BMP_pressure;BME280_temperature;BME280_humidity;BME280_pressure;Samples;Min_cycle;Max_cycle;Signal;HPM_P1;HPM_P2
2022/08/14 00:00:27;;;;;;;5.050001;4.65;;;;;;;14.27;55.69629;95061.53;;;;
2022/08/14 00:01:28;;;;;;;5.6;5.05;;;;;;;14.17;56.13086;95056.81;;;;
2022/08/14 00:02:29;;;;;;;5.6;5.05;;;;;;;14.17;56.13086;95056.81;;;;
2022/08/14 00:03:30;;;;;;;5.6;5.05;;;;;;;14.17;56.13086;95056.81;;;;
2022/08/14 00:04:31;;;;;;;5.6;5.05;;;;;;;14.17;56.13086;95056.81;;;;
2022/08/14 00:05:33;;;;;;;5.6;5.05;;;;;;;14.17;56.13086;95056.81;;;;
2022/08/14 00:06:34;;;;;;;5.6;5.05;;;;;;;14.17;56.13086;95056.81;;;;
2022/08/14 00:07:34;;;;;;;5.6;5.05;;;;;;;14.17;56.13086;95056.81;;;;
2022/08/14 00:08:36;;;;;;;5.6;5.05;;;;;;;14.17;56.13086;95056.81;;;;
2022/08/14 00:09:37;;;;;;;5.6;5.05;;;;;;;14.17;56.13086;95056.81;;;;
2022/08/14 00:10:37;;;;;;;5.6;5.05;;;;;;;14.17;56.13086;95056.81;;;;
2022/08/14 00:11:38;;;;;;;5.6;5.05;;;;;;;14.17;56.13086;95056.81;;;;
2022/08/14 00:12:39;;;;;;;6.5;4.95;;;;;;;14;56.56641;95038.71;;;;
2022/08/14 00:13:42;;;;;;;6.5;4.95;;;;;;;14;56.56641;95038.71;;;;
2022/08/14 00:14:43;;;;;;;6.5;4.95;;;;;;;14;56.56641;95038.71;;;;
2022/08/14 00:15:44;;;;;;;6.5;4.95;;;;;;;14;56.56641;95038.71;;;;
2022/08/14 00:16:47;;;;;;;6.5;4.95;;;;;;;14;56.56641;95038.71;;;;
2022/08/14 00:17:48;;;;;;;6.5;4.95;;;;;;;14;56.56641;95038.71;;;;
2022/08/14 00:18:50;;;;;;;6.5;4.95;;;;;;;14;56.56641;95038.71;;;;
2022/08/14 00:19:50;;;;;;;6.5;4.95;;;;;;;14;56.56641;95038.71;;;;
2022/08/14 00:20:51;;;;;;;6.5;4.95;;;;;;;14;56.56641;95038.71;;;;
2022/08/14 00:21:53;;;;;;;6.5;4.95;;;;;;;14;56.56641;95038.71;;;;
2022/08/14 00:22:53;;;;;;;5.299999;4.8;;;;;;;13.91;56.87207;95037.87;;;;
2022/08/14 00:23:55;;;;;;;5.299999;4.8;;;;;;;13.91;56.87207;95037.87;;;;
2022/08/14 00:24:56;;;;;;;5.299999;4.8;;;;;;;13.91;56.87207;95037.87;;;;
2022/08/14 00:25:56;;;;;;;5.299999;4.8;;;;;;;13.91;56.87207;95037.87;;;;
2022/08/14 00:26:57;;;;;;;5.299999;4.8;;;;;;;13.91;56.87207;95037.87;;;;
2022/08/14 00:27:58;;;;;;;5.299999;4.8;;;;;;;13.91;56.87207;95037.87;;;;
2022/08/14 00:28:58;;;;;;;5.299999;4.8;;;;;;;13.91;56.87207;95037.87;;;;
2022/08/14 00:29:59;;;;;;;5.299999;4.8;;;;;;;13.91;56.87207;95037.87;;;;
2022/08/14 00:30:59;;;;;;;5.299999;4.8;;;;;;;13.91;56.87207;95037.87;;;;
2022/08/14 00:32:00;;;;;;;5.299999;4.8;;;;;;;13.91;56.87207;95037.87;;;;
2022/08/14 00:33:01;;;;;;;5.299999;4.8;;;;;;;13.91;56.87207;95037.87;;;;
2022/08/14 00:34:02;;;;;;;5.2;4.8;;;;;;;13.76;57.22266;95035.88;;;;
2022/08/14 00:35:03;;;;;;;5.2;4.8;;;;;;;13.76;57.22266;95035.88;;;;
2022/08/14 00:36:06;;;;;;;5.2;4.8;;;;;;;13.76;57.22266;95035.88;;;;
2022/08/14 00:37:06;;;;;;;5.2;4.8;;;;;;;13.76;57.22266;95035.88;;;;
2022/08/14 00:38:07;;;;;;;5.2;4.8;;;;;;;13.76;57.22266;95035.88;;;;
2022/08/14 00:39:07;;;;;;;5.2;4.8;;;;;;;13.76;57.22266;95035.88;;;;
2022/08/14 00:40:11;;;;;;;5.2;4.8;;;;;;;13.76;57.22266;95035.88;;;;
2022/08/14 00:41:14;;;;;;;5.2;4.8;;;;;;;13.76;57.22266;95035.88;;;;
2022/08/14 00:42:15;;;;;;;5.2;4.8;;;;;;;13.76;57.22266;95035.88;;;;
2022/08/14 00:43:18;;;;;;;5.2;4.8;;;;;;;13.76;57.22266;95035.88;;;;
2022/08/14 00:44:19;;;;;;;5.6;5.1;;;;;;;13.68;57.57129;95030.54;;;;
2022/08/14 00:45:19;;;;;;;5.6;5.1;;;;;;;13.68;57.57129;95030.54;;;;
2022/08/14 00:46:19;;;;;;;5.6;5.1;;;;;;;13.68;57.57129;95030.54;;;;
2022/08/14 00:47:24;;;;;;;5.6;5.1;;;;;;;13.68;57.57129;95030.54;;;;
2022/08/14 00:48:24;;;;;;;5.6;5.1;;;;;;;13.68;57.57129;95030.54;;;;
2022/08/14 00:49:27;;;;;;;5.6;5.1;;;;;;;13.68;57.57129;95030.54;;;;
2022/08/14 00:50:29;;;;;;;5.6;5.1;;;;;;;13.68;57.57129;95030.54;;;;
2022/08/14 00:51:31;;;;;;;5.6;5.1;;;;;;;13.68;57.57129;95030.54;;;;
2022/08/14 00:52:33;;;;;;;5.6;5.1;;;;;;;13.68;57.57129;95030.54;;;;
2022/08/14 00:53:34;;;;;;;5.6;5.1;;;;;;;13.68;57.57129;95030.54;;;;
2022/08/14 00:54:37;;;;;;;5.6;5.1;;;;;;;13.68;57.57129;95030.54;;;;
2022/08/14 00:55:40;;;;;;;5.149999;4.75;;;;;;;13.51;58.03809;95015.97;;;;
2022/08/14 00:56:41;;;;;;;5.149999;4.75;;;;;;;13.51;58.03809;95015.97;;;;
2022/08/14 00:57:42;;;;;;;5.149999;4.75;;;;;;;13.51;58.03809;95015.97;;;;
2022/08/14 00:58:43;;;;;;;5.149999;4.75;;;;;;;13.51;58.03809;95015.97;;;;
2022/08/14 00:59:43;;;;;;;5.149999;4.75;;;;;;;13.51;58.03809;95015.97;;;;
2022/08/14 01:00:44;;;;;;;5.149999;4.75;;;;;;;13.51;58.03809;95015.97;;;;
2022/08/14 01:01:47;;;;;;;5.149999;4.75;;;;;;;13.51;58.03809;95015.97;;;;
2022/08/14 01:02:49;;;;;;;5.149999;4.75;;;;;;;13.51;58.03809;95015.97;;;;
2022/08/14 01:03:50;;;;;;;5.149999;4.75;;;;;;;13.51;58.03809;95015.97;;;;
2022/08/14 01:04:51;;;;;;;5.149999;4.75;;;;;;;13.51;58.03809;95015.97;;;;
2022/08/14 01:05:54;;;;;;;5.749999;5.25;;;;;;;13.41;58.37207;95013.11;;;;
2022/08/14 01:06:55;;;;;;;5.749999;5.25;;;;;;;13.41;58.37207;95013.11;;;;
2022/08/14 01:07:58;;;;;;;5.749999;5.25;;;;;;;13.41;58.37207;95013.11;;;;
2022/08/14 01:08:59;;;;;;;5.749999;5.25;;;;;;;13.41;58.37207;95013.11;;;;
2022/08/14 01:10:00;;;;;;;5.749999;5.25;;;;;;;13.41;58.37207;95013.11;;;;
2022/08/14 01:11:02;;;;;;;5.749999;5.25;;;;;;;13.41;58.37207;95013.11;;;;
2022/08/14 01:12:04;;;;;;;5.749999;5.25;;;;;;;13.41;58.37207;95013.11;;;;
2022/08/14 01:13:06;;;;;;;5.749999;5.25;;;;;;;13.41;58.37207;95013.11;;;;
2022/08/14 01:14:06;;;;;;;5.749999;5.25;;;;;;;13.41;58.37207;95013.11;;;;
2022/08/14 01:15:06;;;;;;;5.749999;5.25;;;;;;;13.41;58.37207;95013.11;;;;
2022/08/14 01:16:08;;;;;;;4.8;4.400001;;;;;;;13.24;58.69922;95000.2;;;;
2022/08/14 01:17:13;;;;;;;4.8;4.400001;;;;;;;13.24;58.69922;95000.2;;;;
2022/08/14 01:23:25;;;;;;;4.8;4.400001;;;;;;;13.24;58.69922;95000.2;;;;
2022/08/14 01:24:25;;;;;;;4.8;4.400001;;;;;;;13.24;58.69922;95000.2;;;;
2022/08/14 01:25:26;;;;;;;4.8;4.400001;;;;;;;13.24;58.69922;95000.2;;;;
2022/08/14 01:26:27;;;;;;;4.8;4.400001;;;;;;;13.24;58.69922;95000.2;;;;
2022/08/14 01:27:29;;;;;;;5.45;4.950001;;;;;;;13.16;59.08105;94996.56;;;;
2022/08/14 01:28:30;;;;;;;5.45;4.950001;;;;;;;13.16;59.08105;94996.56;;;;
2022/08/14 01:29:36;;;;;;;5.45;4.950001;;;;;;;13.16;59.08105;94996.56;;;;
2022/08/14 01:30:37;;;;;;;5.45;4.950001;;;;;;;13.16;59.08105;94996.56;;;;
2022/08/14 01:31:41;;;;;;;5.45;4.950001;;;;;;;13.16;59.08105;94996.56;;;;
2022/08/14 01:32:42;;;;;;;5.45;4.950001;;;;;;;13.16;59.08105;94996.56;;;;
2022/08/14 01:33:44;;;;;;;5.45;4.950001;;;;;;;13.16;59.08105;94996.56;;;;
2022/08/14 01:34:46;;;;;;;5.45;4.950001;;;;;;;13.16;59.08105;94996.56;;;;
2022/08/14 01:35:47;;;;;;;5.45;4.950001;;;;;;;13.16;59.08105;94996.56;;;;
2022/08/14 01:36:48;;;;;;;5.45;4.950001;;;;;;;13.16;59.08105;94996.56;;;;
2022/08/14 01:37:49;;;;;;;5.25;4.75;;;;;;;13.03;59.43262;94981.84;;;;
2022/08/14 01:38:50;;;;;;;5.25;4.75;;;;;;;13.03;59.43262;94981.84;;;;
2022/08/14 01:39:53;;;;;;;5.25;4.75;;;;;;;13.03;59.43262;94981.84;;;;
2022/08/14 01:40:53;;;;;;;5.25;4.75;;;;;;;13.03;59.43262;94981.84;;;;
2022/08/14 01:41:55;;;;;;;5.25;4.75;;;;;;;13.03;59.43262;94981.84;;;;
2022/08/14 01:42:56;;;;;;;5.25;4.75;;;;;;;13.03;59.43262;94981.84;;;;
2022/08/14 01:43:59;;;;;;;5.25;4.75;;;;;;;13.03;59.43262;94981.84;;;;
2022/08/14 01:45:11;;;;;;;5.25;4.75;;;;;;;13.03;59.43262;94981.84;;;;
2022/08/14 01:46:11;;;;;;;5.25;4.75;;;;;;;13.03;59.43262;94981.84;;;;
2022/08/14 01:47:12;;;;;;;5.25;4.75;;;;;;;13.03;59.43262;94981.84;;;;
2022/08/14 01:48:13;;;;;;;5.35;4.799999;;;;;;;12.97;59.79297;94963.23;;;;
2022/08/14 01:49:14;;;;;;;5.35;4.799999;;;;;;;12.97;59.79297;94963.23;;;;
2022/08/14 01:50:15;;;;;;;5.35;4.799999;;;;;;;12.97;59.79297;94963.23;;;;
2022/08/14 01:51:16;;;;;;;5.35;4.799999;;;;;;;12.97;59.79297;94963.23;;;;
2022/08/14 01:52:21;;;;;;;5.35;4.799999;;;;;;;12.97;59.79297;94963.23;;;;
2022/08/14 01:53:21;;;;;;;5.35;4.799999;;;;;;;12.97;59.79297;94963.23;;;;
2022/08/14 01:54:22;;;;;;;5.35;4.799999;;;;;;;12.97;59.79297;94963.23;;;;
2022/08/14 01:55:24;;;;;;;5.35;4.799999;;;;;;;12.97;59.79297;94963.23;;;;
2022/08/14 01:56:34;;;;;;;5.35;4.799999;;;;;;;12.97;59.79297;94963.23;;;;
2022/08/14 01:57:36;;;;;;;5.35;4.799999;;;;;;;12.97;59.79297;94963.23;;;;
2022/08/14 01:58:37;;;;;;;5.35;4.799999;;;;;;;12.97;59.79297;94963.23;;;;
2022/08/14 01:59:39;;;;;;;6.3;5.25;;;;;;;12.84;60.13477;94947.99;;;;
2022/08/14 02:00:40;;;;;;;6.3;5.25;;;;;;;12.84;60.13477;94947.99;;;;
2022/08/14 02:01:41;;;;;;;6.3;5.25;;;;;;;12.84;60.13477;94947.99;;;;
2022/08/14 02:02:41;;;;;;;6.3;5.25;;;;;;;12.84;60.13477;94947.99;;;;
2022/08/14 02:03:42;;;;;;;6.3;5.25;;;;;;;12.84;60.13477;94947.99;;;;
2022/08/14 02:04:43;;;;;;;6.3;5.25;;;;;;;12.84;60.13477;94947.99;;;;
2022/08/14 02:05:43;;;;;;;6.3;5.25;;;;;;;12.84;60.13477;94947.99;;;;
2022/08/14 02:06:44;;;;;;;6.3;5.25;;;;;;;12.84;60.13477;94947.99;;;;
2022/08/14 02:07:44;;;;;;;6.3;5.25;;;;;;;12.84;60.13477;94947.99;;;;
2022/08/14 02:08:45;;;;;;;6.3;5.25;;;;;;;12.84;60.13477;94947.99;;;;
2022/08/14 02:09:46;;;;;;;4.95;4.45;;;;;;;12.82;60.41309;94944.87;;;;
2022/08/14 02:11:15;;;;;;;4.95;4.45;;;;;;;12.82;60.41309;94944.87;;;;
2022/08/14 02:12:16;;;;;;;4.95;4.45;;;;;;;12.82;60.41309;94944.87;;;;
2022/08/14 02:13:19;;;;;;;4.95;4.45;;;;;;;12.82;60.41309;94944.87;;;;
2022/08/14 02:14:19;;;;;;;4.95;4.45;;;;;;;12.82;60.41309;94944.87;;;;
2022/08/14 02:15:20;;;;;;;4.95;4.45;;;;;;;12.82;60.41309;94944.87;;;;
2022/08/14 02:16:24;;;;;;;4.95;4.45;;;;;;;12.82;60.41309;94944.87;;;;
2022/08/14 02:17:27;;;;;;;4.95;4.45;;;;;;;12.82;60.41309;94944.87;;;;
2022/08/14 02:18:29;;;;;;;4.95;4.45;;;;;;;12.82;60.41309;94944.87;;;;
2022/08/14 02:19:29;;;;;;;4.95;4.45;;;;;;;12.82;60.41309;94944.87;;;;
2022/08/14 02:20:32;;;;;;;7.200001;5.15;;;;;;;12.74;60.66211;94935.96;;;;
2022/08/14 02:21:33;;;;;;;7.200001;5.15;;;;;;;12.74;60.66211;94935.96;;;;
2022/08/14 02:22:35;;;;;;;7.200001;5.15;;;;;;;12.74;60.66211;94935.96;;;;
2022/08/14 02:23:36;;;;;;;7.200001;5.15;;;;;;;12.74;60.66211;94935.96;;;;
2022/08/14 02:24:37;;;;;;;7.200001;5.15;;;;;;;12.74;60.66211;94935.96;;;;
2022/08/14 02:25:37;;;;;;;7.200001;5.15;;;;;;;12.74;60.66211;94935.96;;;;
2022/08/14 02:26:38;;;;;;;7.200001;5.15;;;;;;;12.74;60.66211;94935.96;;;;
2022/08/14 02:27:41;;;;;;;7.200001;5.15;;;;;;;12.74;60.66211;94935.96;;;;
2022/08/14 02:28:42;;;;;;;7.200001;5.15;;;;;;;12.74;60.66211;94935.96;;;;
2022/08/14 02:29:42;;;;;;;7.200001;5.15;;;;;;;12.74;60.66211;94935.96;;;;
2022/08/14 02:30:43;;;;;;;7.200001;5.15;;;;;;;12.74;60.66211;94935.96;;;;
2022/08/14 02:31:44;;;;;;;5.55;4.9;;;;;;;12.71;60.85449;94920.51;;;;
2022/08/14 02:32:48;;;;;;;5.55;4.9;;;;;;;12.71;60.85449;94920.51;;;;
2022/08/14 02:33:49;;;;;;;5.55;4.9;;;;;;;12.71;60.85449;94920.51;;;;
2022/08/14 02:34:50;;;;;;;5.55;4.9;;;;;;;12.71;60.85449;94920.51;;;;
2022/08/14 02:35:51;;;;;;;5.55;4.9;;;;;;;12.71;60.85449;94920.51;;;;
2022/08/14 02:36:52;;;;;;;5.55;4.9;;;;;;;12.71;60.85449;94920.51;;;;
2022/08/14 02:37:54;;;;;;;5.55;4.9;;;;;;;12.71;60.85449;94920.51;;;;
2022/08/14 02:38:56;;;;;;;5.55;4.9;;;;;;;12.71;60.85449;94920.51;;;;
2022/08/14 02:39:56;;;;;;;5.55;4.9;;;;;;;12.71;60.85449;94920.51;;;;
2022/08/14 02:40:57;;;;;;;5.55;4.9;;;;;;;12.71;60.85449;94920.51;;;;
2022/08/14 02:41:57;;;;;;;5.3;4.8;;;;;;;12.59;61.13184;94914.82;;;;
2022/08/14 02:42:58;;;;;;;5.3;4.8;;;;;;;12.59;61.13184;94914.82;;;;
2022/08/14 02:43:59;;;;;;;5.3;4.8;;;;;;;12.59;61.13184;94914.82;;;;
2022/08/14 02:45:00;;;;;;;5.3;4.8;;;;;;;12.59;61.13184;94914.82;;;;
2022/08/14 02:46:02;;;;;;;5.3;4.8;;;;;;;12.59;61.13184;94914.82;;;;
2022/08/14 02:47:02;;;;;;;5.3;4.8;;;;;;;12.59;61.13184;94914.82;;;;
2022/08/14 02:48:06;;;;;;;5.3;4.8;;;;;;;12.59;61.13184;94914.82;;;;
2022/08/14 02:49:07;;;;;;;5.3;4.8;;;;;;;12.59;61.13184;94914.82;;;;
2022/08/14 02:50:07;;;;;;;5.3;4.8;;;;;;;12.59;61.13184;94914.82;;;;
2022/08/14 02:51:09;;;;;;;5.3;4.8;;;;;;;12.59;61.13184;94914.82;;;;
2022/08/14 02:52:12;;;;;;;5.7;5.1;;;;;;;12.54;61.30859;94900.12;;;;
2022/08/14 02:53:12;;;;;;;5.7;5.1;;;;;;;12.54;61.30859;94900.12;;;;
2022/08/14 02:54:13;;;;;;;5.7;5.1;;;;;;;12.54;61.30859;94900.12;;;;
2022/08/14 02:55:14;;;;;;;5.7;5.1;;;;;;;12.54;61.30859;94900.12;;;;
2022/08/14 02:56:14;;;;;;;5.7;5.1;;;;;;;12.54;61.30859;94900.12;;;;
2022/08/14 02:57:17;;;;;;;5.7;5.1;;;;;;;12.54;61.30859;94900.12;;;;
2022/08/14 02:58:17;;;;;;;5.7;5.1;;;;;;;12.54;61.30859;94900.12;;;;
2022/08/14 02:59:19;;;;;;;5.7;5.1;;;;;;;12.54;61.30859;94900.12;;;;
2022/08/14 03:00:22;;;;;;;5.7;5.1;;;;;;;12.54;61.30859;94900.12;;;;
2022/08/14 03:01:23;;;;;;;5.7;5.1;;;;;;;12.54;61.30859;94900.12;;;;
2022/08/14 03:02:24;;;;;;;5.7;5.1;;;;;;;12.54;61.30859;94900.12;;;;
2022/08/14 03:03:24;;;;;;;5.35;4.85;;;;;;;12.38;61.56738;94900.84;;;;
2022/08/14 03:04:25;;;;;;;5.35;4.85;;;;;;;12.38;61.56738;94900.84;;;;
2022/08/14 03:05:29;;;;;;;5.35;4.85;;;;;;;12.38;61.56738;94900.84;;;;
2022/08/14 03:06:30;;;;;;;5.35;4.85;;;;;;;12.38;61.56738;94900.84;;;;
2022/08/14 03:07:31;;;;;;;5.35;4.85;;;;;;;12.38;61.56738;94900.84;;;;
2022/08/14 03:08:32;;;;;;;5.35;4.85;;;;;;;12.38;61.56738;94900.84;;;;
2022/08/14 03:09:33;;;;;;;5.35;4.85;;;;;;;12.38;61.56738;94900.84;;;;
2022/08/14 03:10:34;;;;;;;5.35;4.85;;;;;;;12.38;61.56738;94900.84;;;;
2022/08/14 03:11:35;;;;;;;5.35;4.85;;;;;;;12.38;61.56738;94900.84;;;;
2022/08/14 03:12:36;;;;;;;5.35;4.85;;;;;;;12.38;61.56738;94900.84;;;;
2022/08/14 03:13:36;;;;;;;5.35;4.85;;;;;;;12.38;61.56738;94900.84;;;;
2022/08/14 03:14:43;;;;;;;5.35;4.85;;;;;;;12.38;61.56738;94900.84;;;;
2022/08/14 03:15:45;;;;;;;5.35;4.85;;;;;;;12.38;61.56738;94900.84;;;;
2022/08/14 03:16:47;;;;;;;5.35;4.85;;;;;;;12.38;61.56738;94900.84;;;;
2022/08/14 03:17:51;;;;;;;5.35;4.85;;;;;;;12.38;61.56738;94900.84;;;;
2022/08/14 03:18:52;;;;;;;5.35;4.85;;;;;;;12.38;61.56738;94900.84;;;;
2022/08/14 03:19:54;;;;;;;5.35;4.85;;;;;;;12.38;61.56738;94900.84;;;;
2022/08/14 03:20:55;;;;;;;5.35;4.85;;;;;;;12.38;61.56738;94900.84;;;;
2022/08/14 03:21:57;;;;;;;5.35;4.85;;;;;;;12.38;61.56738;94900.84;;;;
2022/08/14 03:23:00;;;;;;;5.35;4.85;;;;;;;12.38;61.56738;94900.84;;;;
2022/08/14 03:24:08;;;;;;;5.35;4.85;;;;;;;12.38;61.56738;94900.84;;;;
2022/08/14 03:25:10;;;;;;;5.400001;4.75;;;;;;;12.12;62.25879;94884.91;;;;
2022/08/14 03:26:11;;;;;;;5.400001;4.75;;;;;;;12.12;62.25879;94884.91;;;;
2022/08/14 03:27:14;;;;;;;5.400001;4.75;;;;;;;12.12;62.25879;94884.91;;;;
2022/08/14 03:28:14;;;;;;;5.400001;4.75;;;;;;;12.12;62.25879;94884.91;;;;
2022/08/14 03:29:15;;;;;;;5.400001;4.75;;;;;;;12.12;62.25879;94884.91;;;;
2022/08/14 03:30:16;;;;;;;5.400001;4.75;;;;;;;12.12;62.25879;94884.91;;;;
2022/08/14 03:31:22;;;;;;;5.400001;4.75;;;;;;;12.12;62.25879;94884.91;;;;
2022/08/14 03:32:23;;;;;;;5.400001;4.75;;;;;;;12.12;62.25879;94884.91;;;;
2022/08/14 03:33:23;;;;;;;5.400001;4.75;;;;;;;12.12;62.25879;94884.91;;;;
2022/08/14 03:34:25;;;;;;;5.400001;4.75;;;;;;;12.12;62.25879;94884.91;;;;
2022/08/14 03:35:25;;;;;;;5.400001;4.900001;;;;;;;12.03;62.50488;94873.44;;;;
2022/08/14 03:36:26;;;;;;;5.400001;4.900001;;;;;;;12.03;62.50488;94873.44;;;;
2022/08/14 03:37:27;;;;;;;5.400001;4.900001;;;;;;;12.03;62.50488;94873.44;;;;
2022/08/14 03:38:29;;;;;;;5.400001;4.900001;;;;;;;12.03;62.50488;94873.44;;;;
2022/08/14 03:39:29;;;;;;;5.400001;4.900001;;;;;;;12.03;62.50488;94873.44;;;;
2022/08/14 03:40:30;;;;;;;5.400001;4.900001;;;;;;;12.03;62.50488;94873.44;;;;
2022/08/14 03:41:30;;;;;;;5.400001;4.900001;;;;;;;12.03;62.50488;94873.44;;;;
2022/08/14 03:42:32;;;;;;;5.400001;4.900001;;;;;;;12.03;62.50488;94873.44;;;;
2022/08/14 03:43:32;;;;;;;5.400001;4.900001;;;;;;;12.03;62.50488;94873.44;;;;
2022/08/14 03:44:34;;;;;;;5.400001;4.900001;;;;;;;12.03;62.50488;94873.44;;;;
2022/08/14 03:45:35;;;;;;;6.7;5.400001;;;;;;;11.91;62.82324;94881.5;;;;
2022/08/14 03:46:38;;;;;;;6.7;5.400001;;;;;;;11.91;62.82324;94881.5;;;;
2022/08/14 03:47:39;;;;;;;6.7;5.400001;;;;;;;11.91;62.82324;94881.5;;;;
2022/08/14 03:48:40;;;;;;;6.7;5.400001;;;;;;;11.91;62.82324;94881.5;;;;
2022/08/14 03:49:42;;;;;;;6.7;5.400001;;;;;;;11.91;62.82324;94881.5;;;;
2022/08/14 03:50:43;;;;;;;6.7;5.400001;;;;;;;11.91;62.82324;94881.5;;;;
2022/08/14 03:51:44;;;;;;;6.7;5.400001;;;;;;;11.91;62.82324;94881.5;;;;
2022/08/14 03:52:45;;;;;;;6.7;5.400001;;;;;;;11.91;62.82324;94881.5;;;;
2022/08/14 03:53:46;;;;;;;6.7;5.400001;;;;;;;11.91;62.82324;94881.5;;;;
2022/08/14 03:54:48;;;;;;;6.7;5.400001;;;;;;;11.91;62.82324;94881.5;;;;
2022/08/14 03:55:48;;;;;;;6.7;5.400001;;;;;;;11.91;62.82324;94881.5;;;;
2022/08/14 03:56:49;;;;;;;5.950001;5.349999;;;;;;;11.9;63.02832;94886.91;;;;
2022/08/14 03:57:49;;;;;;;5.950001;5.349999;;;;;;;11.9;63.02832;94886.91;;;;
2022/08/14 03:58:50;;;;;;;5.950001;5.349999;;;;;;;11.9;63.02832;94886.91;;;;
2022/08/14 03:59:52;;;;;;;5.950001;5.349999;;;;;;;11.9;63.02832;94886.91;;;;
2022/08/14 04:00:52;;;;;;;5.950001;5.349999;;;;;;;11.9;63.02832;94886.91;;;;
2022/08/14 04:01:53;;;;;;;5.950001;5.349999;;;;;;;11.9;63.02832;94886.91;;;;
2022/08/14 04:02:53;;;;;;;5.950001;5.349999;;;;;;;11.9;63.02832;94886.91;;;;
2022/08/14 04:03:56;;;;;;;5.950001;5.349999;;;;;;;11.9;63.02832;94886.91;;;;
2022/08/14 04:04:57;;;;;;;5.950001;5.349999;;;;;;;11.9;63.02832;94886.91;;;;
2022/08/14 04:05:57;;;;;;;5.950001;5.349999;;;;;;;11.9;63.02832;94886.91;;;;
2022/08/14 04:06:58;;;;;;;5.799999;5.200001;;;;;;;11.9;63.50391;94882.14;;;;
2022/08/14 04:07:59;;;;;;;5.799999;5.200001;;;;;;;11.9;63.50391;94882.14;;;;
2022/08/14 04:09:00;;;;;;;5.799999;5.200001;;;;;;;11.9;63.50391;94882.14;;;;
2022/08/14 04:10:01;;;;;;;5.799999;5.200001;;;;;;;11.9;63.50391;94882.14;;;;
2022/08/14 04:11:01;;;;;;;5.799999;5.200001;;;;;;;11.9;63.50391;94882.14;;;;
2022/08/14 04:12:04;;;;;;;5.799999;5.200001;;;;;;;11.9;63.50391;94882.14;;;;
2022/08/14 04:13:05;;;;;;;5.799999;5.200001;;;;;;;11.9;63.50391;94882.14;;;;
2022/08/14 04:14:06;;;;;;;5.799999;5.200001;;;;;;;11.9;63.50391;94882.14;;;;
2022/08/14 04:15:06;;;;;;;5.799999;5.200001;;;;;;;11.9;63.50391;94882.14;;;;
2022/08/14 04:16:09;;;;;;;5.799999;5.200001;;;;;;;11.9;63.50391;94882.14;;;;
2022/08/14 04:17:13;;;;;;;5.799999;5.200001;;;;;;;11.9;63.50391;94882.14;;;;
2022/08/14 04:18:13;;;;;;;6;5.349999;;;;;;;12.03;63.5127;94867.72;;;;
2022/08/14 04:19:17;;;;;;;6;5.349999;;;;;;;12.03;63.5127;94867.72;;;;
2022/08/14 04:20:18;;;;;;;6;5.349999;;;;;;;12.03;63.5127;94867.72;;;;
2022/08/14 04:21:18;;;;;;;6;5.349999;;;;;;;12.03;63.5127;94867.72;;;;
2022/08/14 04:22:20;;;;;;;6;5.349999;;;;;;;12.03;63.5127;94867.72;;;;
2022/08/14 04:23:21;;;;;;;6;5.349999;;;;;;;12.03;63.5127;94867.72;;;;
2022/08/14 04:24:23;;;;;;;6;5.349999;;;;;;;12.03;63.5127;94867.72;;;;
2022/08/14 04:25:24;;;;;;;6;5.349999;;;;;;;12.03;63.5127;94867.72;;;;
2022/08/14 04:26:25;;;;;;;6;5.349999;;;;;;;12.03;63.5127;94867.72;;;;
2022/08/14 04:27:28;;;;;;;6;5.349999;;;;;;;12.03;63.5127;94867.72;;;;
2022/08/14 04:28:28;;;;;;;6.1;5.5;;;;;;;12.02;63.66309;94851.56;;;;
2022/08/14 04:29:30;;;;;;;6.1;5.5;;;;;;;12.02;63.66309;94851.56;;;;
2022/08/14 04:30:31;;;;;;;6.1;5.5;;;;;;;12.02;63.66309;94851.56;;;;
2022/08/14 04:31:33;;;;;;;6.1;5.5;;;;;;;12.02;63.66309;94851.56;;;;
2022/08/14 04:32:33;;;;;;;6.1;5.5;;;;;;;12.02;63.66309;94851.56;;;;
2022/08/14 04:33:35;;;;;;;6.1;5.5;;;;;;;12.02;63.66309;94851.56;;;;
2022/08/14 04:34:38;;;;;;;6.1;5.5;;;;;;;12.02;63.66309;94851.56;;;;
2022/08/14 04:35:39;;;;;;;6.1;5.5;;;;;;;12.02;63.66309;94851.56;;;;
2022/08/14 04:43:34;;;;;;;6.1;5.5;;;;;;;12.02;63.66309;94851.56;;;;
2022/08/14 04:44:35;;;;;;;6.9;5.55;;;;;;;12.09;63.74805;94837.28;;;;
2022/08/14 04:45:39;;;;;;;6.9;5.55;;;;;;;12.09;63.74805;94837.28;;;;
2022/08/14 04:48:11;;;;;;;6.9;5.55;;;;;;;12.09;63.74805;94837.28;;;;
2022/08/14 04:49:13;;;;;;;6.9;5.55;;;;;;;12.09;63.74805;94837.28;;;;
2022/08/14 04:50:14;;;;;;;6.35;5.749999;;;;;;;12.14;63.89551;94834.74;;;;
2022/08/14 04:51:14;;;;;;;6.35;5.749999;;;;;;;12.14;63.89551;94834.74;;;;
2022/08/14 04:52:17;;;;;;;6.35;5.749999;;;;;;;12.14;63.89551;94834.74;;;;
2022/08/14 04:53:17;;;;;;;6.35;5.749999;;;;;;;12.14;63.89551;94834.74;;;;
2022/08/14 04:54:20;;;;;;;6.35;5.749999;;;;;;;12.14;63.89551;94834.74;;;;
2022/08/14 04:55:21;;;;;;;6.35;5.749999;;;;;;;12.14;63.89551;94834.74;;;;
2022/08/14 04:56:21;;;;;;;6.35;5.749999;;;;;;;12.14;63.89551;94834.74;;;;
2022/08/14 04:57:24;;;;;;;6.35;5.749999;;;;;;;12.14;63.89551;94834.74;;;;
2022/08/14 04:58:25;;;;;;;6.35;5.749999;;;;;;;12.14;63.89551;94834.74;;;;
2022/08/14 04:59:28;;;;;;;6.35;5.749999;;;;;;;12.14;63.89551;94834.74;;;;
2022/08/14 05:00:29;;;;;;;6.249999;5.65;;;;;;;12.31;63.98633;94825.42;;;;
2022/08/14 05:01:30;;;;;;;6.249999;5.65;;;;;;;12.31;63.98633;94825.42;;;;
2022/08/14 05:02:33;;;;;;;6.249999;5.65;;;;;;;12.31;63.98633;94825.42;;;;
2022/08/14 05:03:34;;;;;;;6.249999;5.65;;;;;;;12.31;63.98633;94825.42;;;;
2022/08/14 05:04:36;;;;;;;6.249999;5.65;;;;;;;12.31;63.98633;94825.42;;;;
2022/08/14 05:05:38;;;;;;;6.249999;5.65;;;;;;;12.31;63.98633;94825.42;;;;
2022/08/14 05:06:38;;;;;;;6.249999;5.65;;;;;;;12.31;63.98633;94825.42;;;;
2022/08/14 05:07:41;;;;;;;6.249999;5.65;;;;;;;12.31;63.98633;94825.42;;;;
2022/08/14 05:08:42;;;;;;;6.249999;5.65;;;;;;;12.31;63.98633;94825.42;;;;
2022/08/14 05:09:42;;;;;;;6.249999;5.65;;;;;;;12.31;63.98633;94825.42;;;;
2022/08/14 05:10:43;;;;;;;6.249999;5.65;;;;;;;12.31;63.98633;94825.42;;;;
2022/08/14 05:11:46;;;;;;;6.65;6.050001;;;;;;;12.46;64.00879;94819.53;;;;
2022/08/14 05:12:47;;;;;;;6.65;6.050001;;;;;;;12.46;64.00879;94819.53;;;;
2022/08/14 05:13:48;;;;;;;6.65;6.050001;;;;;;;12.46;64.00879;94819.53;;;;
2022/08/14 05:14:49;;;;;;;6.65;6.050001;;;;;;;12.46;64.00879;94819.53;;;;
2022/08/14 05:15:51;;;;;;;6.65;6.050001;;;;;;;12.46;64.00879;94819.53;;;;
2022/08/14 05:16:56;;;;;;;6.65;6.050001;;;;;;;12.46;64.00879;94819.53;;;;
2022/08/14 05:17:57;;;;;;;6.65;6.050001;;;;;;;12.46;64.00879;94819.53;;;;
2022/08/14 05:18:57;;;;;;;6.65;6.050001;;;;;;;12.46;64.00879;94819.53;;;;
2022/08/14 05:20:00;;;;;;;6.65;6.050001;;;;;;;12.46;64.00879;94819.53;;;;
2022/08/14 05:21:00;;;;;;;6.65;6.050001;;;;;;;12.46;64.00879;94819.53;;;;
2022/08/14 05:22:03;;;;;;;6.249999;5.65;;;;;;;12.82;64.09277;94813.58;;;;
2022/08/14 05:23:04;;;;;;;6.249999;5.65;;;;;;;12.82;64.09277;94813.58;;;;
2022/08/14 05:24:04;;;;;;;6.249999;5.65;;;;;;;12.82;64.09277;94813.58;;;;
2022/08/14 05:25:05;;;;;;;6.249999;5.65;;;;;;;12.82;64.09277;94813.58;;;;
2022/08/14 05:26:12;;;;;;;6.249999;5.65;;;;;;;12.82;64.09277;94813.58;;;;
2022/08/14 05:27:12;;;;;;;6.249999;5.65;;;;;;;12.82;64.09277;94813.58;;;;
2022/08/14 05:28:17;;;;;;;6.249999;5.65;;;;;;;12.82;64.09277;94813.58;;;;
2022/08/14 05:29:20;;;;;;;6.249999;5.65;;;;;;;12.82;64.09277;94813.58;;;;
2022/08/14 05:30:21;;;;;;;6.249999;5.65;;;;;;;12.82;64.09277;94813.58;;;;
2022/08/14 05:31:21;;;;;;;6.249999;5.65;;;;;;;12.82;64.09277;94813.58;;;;
2022/08/14 05:32:22;;;;;;;6.699999;5.8;;;;;;;13.24;63.8291;94810.8;;;;
2022/08/14 05:33:24;;;;;;;6.699999;5.8;;;;;;;13.24;63.8291;94810.8;;;;
2022/08/14 05:34:28;;;;;;;6.699999;5.8;;;;;;;13.24;63.8291;94810.8;;;;
2022/08/14 05:35:31;;;;;;;6.699999;5.8;;;;;;;13.24;63.8291;94810.8;;;;
2022/08/14 05:36:32;;;;;;;6.699999;5.8;;;;;;;13.24;63.8291;94810.8;;;;
2022/08/14 05:37:32;;;;;;;6.699999;5.8;;;;;;;13.24;63.8291;94810.8;;;;
2022/08/14 05:38:34;;;;;;;6.699999;5.8;;;;;;;13.24;63.8291;94810.8;;;;
2022/08/14 05:39:36;;;;;;;6.699999;5.8;;;;;;;13.24;63.8291;94810.8;;;;
2022/08/14 05:40:39;;;;;;;6.699999;5.8;;;;;;;13.24;63.8291;94810.8;;;;
2022/08/14 05:41:40;;;;;;;6.699999;5.8;;;;;;;13.24;63.8291;94810.8;;;;
2022/08/14 05:42:41;;;;;;;6.699999;5.8;;;;;;;13.24;63.8291;94810.8;;;;
2022/08/14 05:43:41;;;;;;;6.3;5.8;;;;;;;13.8;63.71387;94814.34;;;;
2022/08/14 05:44:44;;;;;;;6.3;5.8;;;;;;;13.8;63.71387;94814.34;;;;
2022/08/14 05:45:45;;;;;;;6.3;5.8;;;;;;;13.8;63.71387;94814.34;;;;
2022/08/14 05:46:45;;;;;;;6.3;5.8;;;;;;;13.8;63.71387;94814.34;;;;
2022/08/14 05:47:45;;;;;;;6.3;5.8;;;;;;;13.8;63.71387;94814.34;;;;
2022/08/14 05:48:46;;;;;;;6.3;5.8;;;;;;;13.8;63.71387;94814.34;;;;
2022/08/14 05:49:47;;;;;;;6.3;5.8;;;;;;;13.8;63.71387;94814.34;;;;
2022/08/14 05:50:48;;;;;;;6.3;5.8;;;;;;;13.8;63.71387;94814.34;;;;
2022/08/14 05:51:48;;;;;;;6.3;5.8;;;;;;;13.8;63.71387;94814.34;;;;
2022/08/14 05:52:49;;;;;;;6.3;5.8;;;;;;;13.8;63.71387;94814.34;;;;
2022/08/14 05:53:50;;;;;;;6.45;5.85;;;;;;;14.35;63.51074;94813.83;;;;